sensor_id;sensor_type;location;lat;lon;timestamp;P1;durP1;ratioP1;P2;durP2;ratioP2
41693;SDS011;27377;50.666;9.150;2024-03-22T00:00:12;10.80;;;7.28;;
41693;SDS011;27377;50.666;9.150;2024-03-22T00:02:56;11.60;;;8.00;;
41693;SDS011;27377;50.666;9.150;2024-03-22T00:05:40;10.87;;;7.27;;
41693;SDS011;27377;50.666;9.150;2024-03-22T00:08:24;12.20;;;7.53;;
41693;SDS011;27377;50.666;9.150;2024-03-22T00:11:08;10.65;;;7.70;;
41693;SDS011;27377;50.666;9.150;2024-03-22T00:13:52;10.57;;;7.50;;
41693;SDS011;27377;50.666;9.150;2024-03-22T00:16:36;9.40;;;7.00;;
41693;SDS011;27377;50.666;9.150;2024-03-22T00:19:21;10.48;;;7.55;;
41693;SDS011;27377;50.666;9.150;2024-03-22T00:22:05;12.73;;;7.68;;
41693;SDS011;27377;50.666;9.150;2024-03-22T00:24:49;10.77;;;7.80;;
41693;SDS011;27377;50.666;9.150;2024-03-22T00:27:33;12.40;;;7.50;;
41693;SDS011;27377;50.666;9.150;2024-03-22T00:30:17;10.27;;;7.90;;
41693;SDS011;27377;50.666;9.150;2024-03-22T00:33:02;11.93;;;8.38;;
41693;SDS011;27377;50.666;9.150;2024-03-22T00:35:46;11.40;;;7.78;;
41693;SDS011;27377;50.666;9.150;2024-03-22T00:38:33;11.95;;;8.05;;
41693;SDS011;27377;50.666;9.150;2024-03-22T00:41:26;14.60;;;7.67;;
41693;SDS011;27377;50.666;9.150;2024-03-22T00:44:11;10.65;;;7.95;;
41693;SDS011;27377;50.666;9.150;2024-03-22T00:46:59;11.50;;;7.75;;
41693;SDS011;27377;50.666;9.150;2024-03-22T00:49:53;10.32;;;7.28;;
41693;SDS011;27377;50.666;9.150;2024-03-22T00:52:40;9.90;;;7.03;;
41693;SDS011;27377;50.666;9.150;2024-03-22T00:55:25;10.88;;;7.43;;
41693;SDS011;27377;50.666;9.150;2024-03-22T00:58:10;11.57;;;8.45;;
41693;SDS011;27377;50.666;9.150;2024-03-22T01:00:54;11.23;;;7.65;;
41693;SDS011;27377;50.666;9.150;2024-03-22T01:03:42;11.25;;;7.75;;
41693;SDS011;27377;50.666;9.150;2024-03-22T01:06:29;11.65;;;8.00;;
41693;SDS011;27377;50.666;9.150;2024-03-22T01:09:14;13.15;;;8.82;;
41693;SDS011;27377;50.666;9.150;2024-03-22T01:12:05;12.00;;;8.02;;
41693;SDS011;27377;50.666;9.150;2024-03-22T01:14:53;11.40;;;7.80;;
41693;SDS011;27377;50.666;9.150;2024-03-22T01:17:38;12.20;;;8.35;;
41693;SDS011;27377;50.666;9.150;2024-03-22T01:20:23;11.47;;;8.47;;
41693;SDS011;27377;50.666;9.150;2024-03-22T01:23:08;13.07;;;9.13;;
41693;SDS011;27377;50.666;9.150;2024-03-22T01:25:53;14.25;;;9.70;;
41693;SDS011;27377;50.666;9.150;2024-03-22T01:28:37;13.77;;;10.02;;
41693;SDS011;27377;50.666;9.150;2024-03-22T01:31:28;12.93;;;8.40;;
41693;SDS011;27377;50.666;9.150;2024-03-22T01:34:13;11.65;;;7.50;;
41693;SDS011;27377;50.666;9.150;2024-03-22T01:37:04;10.90;;;7.30;;
41693;SDS011;27377;50.666;9.150;2024-03-22T01:39:49;11.93;;;7.50;;
41693;SDS011;27377;50.666;9.150;2024-03-22T01:42:33;12.33;;;8.30;;
41693;SDS011;27377;50.666;9.150;2024-03-22T01:45:18;12.77;;;8.47;;
41693;SDS011;27377;50.666;9.150;2024-03-22T01:48:07;15.07;;;10.20;;
41693;SDS011;27377;50.666;9.150;2024-03-22T01:50:52;14.05;;;9.88;;
41693;SDS011;27377;50.666;9.150;2024-03-22T01:53:40;14.73;;;8.50;;
41693;SDS011;27377;50.666;9.150;2024-03-22T01:56:26;14.23;;;8.50;;
41693;SDS011;27377;50.666;9.150;2024-03-22T01:59:11;12.23;;;8.40;;
41693;SDS011;27377;50.666;9.150;2024-03-22T02:01:56;10.68;;;7.65;;
41693;SDS011;27377;50.666;9.150;2024-03-22T02:04:45;11.65;;;8.25;;
41693;SDS011;27377;50.666;9.150;2024-03-22T02:07:37;11.37;;;7.67;;
41693;SDS011;27377;50.666;9.150;2024-03-22T02:10:21;11.85;;;8.35;;
41693;SDS011;27377;50.666;9.150;2024-03-22T02:13:08;16.85;;;9.73;;
41693;SDS011;27377;50.666;9.150;2024-03-22T02:15:53;16.00;;;10.18;;
41693;SDS011;27377;50.666;9.150;2024-03-22T02:18:38;21.67;;;13.90;;
41693;SDS011;27377;50.666;9.150;2024-03-22T02:21:26;19.60;;;13.05;;
41693;SDS011;27377;50.666;9.150;2024-03-22T02:24:10;21.48;;;13.85;;
41693;SDS011;27377;50.666;9.150;2024-03-22T02:26:59;22.07;;;13.67;;
41693;SDS011;27377;50.666;9.150;2024-03-22T02:29:44;25.23;;;15.13;;
41693;SDS011;27377;50.666;9.150;2024-03-22T02:32:32;24.17;;;15.18;;
41693;SDS011;27377;50.666;9.150;2024-03-22T02:35:16;25.23;;;15.90;;
41693;SDS011;27377;50.666;9.150;2024-03-22T02:38:01;23.08;;;14.52;;
41693;SDS011;27377;50.666;9.150;2024-03-22T02:40:49;18.35;;;12.40;;
41693;SDS011;27377;50.666;9.150;2024-03-22T02:43:35;15.20;;;9.85;;
41693;SDS011;27377;50.666;9.150;2024-03-22T02:46:20;13.63;;;8.95;;
41693;SDS011;27377;50.666;9.150;2024-03-22T02:49:05;19.15;;;11.05;;
41693;SDS011;27377;50.666;9.150;2024-03-22T02:51:49;19.20;;;12.15;;
41693;SDS011;27377;50.666;9.150;2024-03-22T02:54:34;21.08;;;13.45;;
41693;SDS011;27377;50.666;9.150;2024-03-22T02:57:19;23.20;;;14.07;;
41693;SDS011;27377;50.666;9.150;2024-03-22T03:00:07;19.27;;;12.20;;
41693;SDS011;27377;50.666;9.150;2024-03-22T03:02:54;16.23;;;10.40;;
41693;SDS011;27377;50.666;9.150;2024-03-22T03:05:39;12.95;;;9.05;;
41693;SDS011;27377;50.666;9.150;2024-03-22T03:08:26;13.52;;;8.60;;
41693;SDS011;27377;50.666;9.150;2024-03-22T03:11:14;14.82;;;9.13;;
41693;SDS011;27377;50.666;9.150;2024-03-22T03:14:01;14.85;;;10.00;;
41693;SDS011;27377;50.666;9.150;2024-03-22T03:16:46;16.50;;;10.70;;
41693;SDS011;27377;50.666;9.150;2024-03-22T03:19:31;15.48;;;10.35;;
41693;SDS011;27377;50.666;9.150;2024-03-22T03:22:19;15.52;;;10.05;;
41693;SDS011;27377;50.666;9.150;2024-03-22T03:25:03;21.97;;;13.17;;
41693;SDS011;27377;50.666;9.150;2024-03-22T03:27:48;22.88;;;14.18;;
41693;SDS011;27377;50.666;9.150;2024-03-22T03:30:36;25.13;;;14.55;;
41693;SDS011;27377;50.666;9.150;2024-03-22T03:33:20;25.97;;;14.83;;
41693;SDS011;27377;50.666;9.150;2024-03-22T03:36:04;28.13;;;15.93;;
41693;SDS011;27377;50.666;9.150;2024-03-22T03:38:48;24.05;;;14.75;;
41693;SDS011;27377;50.666;9.150;2024-03-22T03:41:33;16.20;;;10.48;;
41693;SDS011;27377;50.666;9.150;2024-03-22T03:44:17;15.93;;;10.23;;
41693;SDS011;27377;50.666;9.150;2024-03-22T03:47:02;12.95;;;8.73;;
41693;SDS011;27377;50.666;9.150;2024-03-22T03:49:46;15.18;;;8.68;;
41693;SDS011;27377;50.666;9.150;2024-03-22T03:52:31;15.65;;;10.05;;
41693;SDS011;27377;50.666;9.150;2024-03-22T03:55:15;19.77;;;11.85;;
41693;SDS011;27377;50.666;9.150;2024-03-22T03:58:00;19.25;;;11.98;;
41693;SDS011;27377;50.666;9.150;2024-03-22T04:00:47;23.38;;;14.10;;
41693;SDS011;27377;50.666;9.150;2024-03-22T04:03:31;27.85;;;16.95;;
41693;SDS011;27377;50.666;9.150;2024-03-22T04:06:16;35.50;;;20.10;;
41693;SDS011;27377;50.666;9.150;2024-03-22T04:09:00;39.80;;;22.60;;
41693;SDS011;27377;50.666;9.150;2024-03-22T04:11:46;37.60;;;21.27;;
41693;SDS011;27377;50.666;9.150;2024-03-22T04:14:31;17.65;;;10.98;;
41693;SDS011;27377;50.666;9.150;2024-03-22T04:17:15;15.82;;;10.23;;
41693;SDS011;27377;50.666;9.150;2024-03-22T04:20:00;22.25;;;12.75;;
41693;SDS011;27377;50.666;9.150;2024-03-22T04:22:47;25.10;;;15.33;;
41693;SDS011;27377;50.666;9.150;2024-03-22T04:25:33;32.92;;;19.52;;
41693;SDS011;27377;50.666;9.150;2024-03-22T04:28:17;26.17;;;15.70;;
41693;SDS011;27377;50.666;9.150;2024-03-22T04:31:05;19.02;;;10.88;;
41693;SDS011;27377;50.666;9.150;2024-03-22T04:33:54;19.75;;;11.40;;
41693;SDS011;27377;50.666;9.150;2024-03-22T04:36:39;20.27;;;12.43;;
41693;SDS011;27377;50.666;9.150;2024-03-22T04:39:24;21.77;;;13.15;;
41693;SDS011;27377;50.666;9.150;2024-03-22T04:42:08;27.08;;;15.40;;
41693;SDS011;27377;50.666;9.150;2024-03-22T04:44:52;18.83;;;11.57;;
41693;SDS011;27377;50.666;9.150;2024-03-22T04:47:36;20.13;;;12.55;;
41693;SDS011;27377;50.666;9.150;2024-03-22T04:50:21;19.73;;;12.10;;
41693;SDS011;27377;50.666;9.150;2024-03-22T04:53:05;21.08;;;12.75;;
41693;SDS011;27377;50.666;9.150;2024-03-22T04:55:49;19.70;;;12.15;;
41693;SDS011;27377;50.666;9.150;2024-03-22T04:58:34;21.35;;;13.35;;
41693;SDS011;27377;50.666;9.150;2024-03-22T05:01:18;23.23;;;13.77;;
41693;SDS011;27377;50.666;9.150;2024-03-22T05:04:02;25.20;;;15.18;;
41693;SDS011;27377;50.666;9.150;2024-03-22T05:06:46;26.65;;;15.57;;
41693;SDS011;27377;50.666;9.150;2024-03-22T05:09:30;24.10;;;14.30;;
41693;SDS011;27377;50.666;9.150;2024-03-22T05:12:15;24.13;;;14.70;;
41693;SDS011;27377;50.666;9.150;2024-03-22T05:14:59;26.50;;;15.15;;
41693;SDS011;27377;50.666;9.150;2024-03-22T05:17:43;21.70;;;13.43;;
41693;SDS011;27377;50.666;9.150;2024-03-22T05:20:28;23.80;;;13.57;;
41693;SDS011;27377;50.666;9.150;2024-03-22T05:23:12;22.13;;;13.48;;
41693;SDS011;27377;50.666;9.150;2024-03-22T05:25:56;26.53;;;15.93;;
41693;SDS011;27377;50.666;9.150;2024-03-22T05:28:40;29.08;;;17.30;;
41693;SDS011;27377;50.666;9.150;2024-03-22T05:31:24;34.03;;;19.73;;
41693;SDS011;27377;50.666;9.150;2024-03-22T05:34:08;36.42;;;20.42;;
41693;SDS011;27377;50.666;9.150;2024-03-22T05:36:52;38.33;;;21.02;;
41693;SDS011;27377;50.666;9.150;2024-03-22T05:39:37;38.40;;;21.67;;
41693;SDS011;27377;50.666;9.150;2024-03-22T05:42:23;44.60;;;23.83;;
41693;SDS011;27377;50.666;9.150;2024-03-22T05:45:07;42.53;;;23.20;;
41693;SDS011;27377;50.666;9.150;2024-03-22T05:47:52;43.30;;;23.93;;
41693;SDS011;27377;50.666;9.150;2024-03-22T05:50:36;44.33;;;23.48;;
41693;SDS011;27377;50.666;9.150;2024-03-22T05:53:20;41.63;;;22.75;;
41693;SDS011;27377;50.666;9.150;2024-03-22T05:56:04;40.50;;;23.02;;
41693;SDS011;27377;50.666;9.150;2024-03-22T05:58:49;40.05;;;22.38;;
41693;SDS011;27377;50.666;9.150;2024-03-22T06:01:33;39.40;;;22.15;;
41693;SDS011;27377;50.666;9.150;2024-03-22T06:04:17;41.75;;;22.83;;
41693;SDS011;27377;50.666;9.150;2024-03-22T06:07:00;41.35;;;22.67;;
41693;SDS011;27377;50.666;9.150;2024-03-22T06:09:47;40.38;;;22.98;;
41693;SDS011;27377;50.666;9.150;2024-03-22T06:12:32;41.05;;;23.52;;
41693;SDS011;27377;50.666;9.150;2024-03-22T06:15:16;43.83;;;24.07;;
41693;SDS011;27377;50.666;9.150;2024-03-22T06:18:00;42.60;;;24.02;;
41693;SDS011;27377;50.666;9.150;2024-03-22T06:20:44;45.75;;;24.77;;
41693;SDS011;27377;50.666;9.150;2024-03-22T06:23:28;44.13;;;25.07;;
41693;SDS011;27377;50.666;9.150;2024-03-22T06:26:12;44.05;;;25.17;;
41693;SDS011;27377;50.666;9.150;2024-03-22T06:28:56;45.95;;;25.02;;
41693;SDS011;27377;50.666;9.150;2024-03-22T06:31:40;48.08;;;27.65;;
41693;SDS011;27377;50.666;9.150;2024-03-22T06:34:24;45.10;;;25.57;;
41693;SDS011;27377;50.666;9.150;2024-03-22T06:37:09;45.23;;;25.20;;
41693;SDS011;27377;50.666;9.150;2024-03-22T06:39:53;45.42;;;25.48;;
41693;SDS011;27377;50.666;9.150;2024-03-22T06:42:37;42.47;;;24.38;;
41693;SDS011;27377;50.666;9.150;2024-03-22T06:45:21;43.42;;;24.40;;
41693;SDS011;27377;50.666;9.150;2024-03-22T06:48:05;41.47;;;24.50;;
41693;SDS011;27377;50.666;9.150;2024-03-22T06:50:49;41.40;;;23.92;;
41693;SDS011;27377;50.666;9.150;2024-03-22T06:53:33;40.20;;;23.15;;
41693;SDS011;27377;50.666;9.150;2024-03-22T06:56:17;38.47;;;22.83;;
41693;SDS011;27377;50.666;9.150;2024-03-22T06:59:01;41.67;;;22.73;;
41693;SDS011;27377;50.666;9.150;2024-03-22T07:01:45;39.67;;;23.17;;
41693;SDS011;27377;50.666;9.150;2024-03-22T07:04:29;38.05;;;21.73;;
41693;SDS011;27377;50.666;9.150;2024-03-22T07:07:13;37.95;;;22.13;;
41693;SDS011;27377;50.666;9.150;2024-03-22T07:09:57;37.55;;;21.63;;
41693;SDS011;27377;50.666;9.150;2024-03-22T07:12:42;39.60;;;22.45;;
41693;SDS011;27377;50.666;9.150;2024-03-22T07:15:25;35.15;;;20.63;;
41693;SDS011;27377;50.666;9.150;2024-03-22T07:18:10;36.10;;;20.52;;
41693;SDS011;27377;50.666;9.150;2024-03-22T07:20:54;34.42;;;20.33;;
41693;SDS011;27377;50.666;9.150;2024-03-22T07:23:38;36.25;;;20.80;;
41693;SDS011;27377;50.666;9.150;2024-03-22T07:26:21;31.90;;;19.13;;
41693;SDS011;27377;50.666;9.150;2024-03-22T07:29:06;32.87;;;19.37;;
41693;SDS011;27377;50.666;9.150;2024-03-22T07:31:50;32.47;;;18.92;;
41693;SDS011;27377;50.666;9.150;2024-03-22T07:34:34;35.42;;;20.65;;
41693;SDS011;27377;50.666;9.150;2024-03-22T07:37:18;53.50;;;27.13;;
41693;SDS011;27377;50.666;9.150;2024-03-22T07:40:02;37.60;;;20.50;;
41693;SDS011;27377;50.666;9.150;2024-03-22T07:42:46;31.63;;;18.15;;
41693;SDS011;27377;50.666;9.150;2024-03-22T07:45:31;31.38;;;18.13;;
41693;SDS011;27377;50.666;9.150;2024-03-22T07:48:18;28.13;;;17.33;;
41693;SDS011;27377;50.666;9.150;2024-03-22T07:51:02;28.17;;;16.98;;
41693;SDS011;27377;50.666;9.150;2024-03-22T07:53:46;26.13;;;15.90;;
41693;SDS011;27377;50.666;9.150;2024-03-22T07:56:31;25.70;;;15.43;;
41693;SDS011;27377;50.666;9.150;2024-03-22T07:59:15;22.92;;;14.73;;
41693;SDS011;27377;50.666;9.150;2024-03-22T08:01:59;24.40;;;14.60;;
41693;SDS011;27377;50.666;9.150;2024-03-22T08:04:43;23.50;;;14.02;;
41693;SDS011;27377;50.666;9.150;2024-03-22T08:07:27;24.67;;;13.93;;
41693;SDS011;27377;50.666;9.150;2024-03-22T08:10:11;23.10;;;13.13;;
41693;SDS011;27377;50.666;9.150;2024-03-22T08:12:55;22.08;;;13.13;;
41693;SDS011;27377;50.666;9.150;2024-03-22T08:15:40;22.77;;;12.85;;
41693;SDS011;27377;50.666;9.150;2024-03-22T08:18:24;24.07;;;12.70;;
41693;SDS011;27377;50.666;9.150;2024-03-22T08:21:08;20.63;;;11.88;;
41693;SDS011;27377;50.666;9.150;2024-03-22T08:23:52;18.80;;;11.93;;
41693;SDS011;27377;50.666;9.150;2024-03-22T08:26:36;19.75;;;11.98;;
41693;SDS011;27377;50.666;9.150;2024-03-22T08:29:21;20.08;;;12.02;;
41693;SDS011;27377;50.666;9.150;2024-03-22T08:32:05;23.95;;;12.57;;
41693;SDS011;27377;50.666;9.150;2024-03-22T08:34:50;18.65;;;11.55;;
41693;SDS011;27377;50.666;9.150;2024-03-22T08:37:34;19.70;;;11.57;;
41693;SDS011;27377;50.666;9.150;2024-03-22T08:40:18;19.40;;;11.50;;
41693;SDS011;27377;50.666;9.150;2024-03-22T08:43:02;20.50;;;11.35;;
41693;SDS011;27377;50.666;9.150;2024-03-22T08:45:46;18.57;;;11.20;;
41693;SDS011;27377;50.666;9.150;2024-03-22T08:48:30;18.52;;;11.15;;
41693;SDS011;27377;50.666;9.150;2024-03-22T08:51:14;17.83;;;10.82;;
41693;SDS011;27377;50.666;9.150;2024-03-22T08:53:58;18.10;;;11.07;;
41693;SDS011;27377;50.666;9.150;2024-03-22T08:56:42;17.17;;;10.50;;
41693;SDS011;27377;50.666;9.150;2024-03-22T08:59:26;18.88;;;11.00;;
41693;SDS011;27377;50.666;9.150;2024-03-22T09:02:10;15.40;;;9.48;;
41693;SDS011;27377;50.666;9.150;2024-03-22T09:04:54;17.57;;;10.10;;
41693;SDS011;27377;50.666;9.150;2024-03-22T09:07:39;15.57;;;9.55;;
41693;SDS011;27377;50.666;9.150;2024-03-22T09:10:23;16.85;;;9.70;;
41693;SDS011;27377;50.666;9.150;2024-03-22T09:13:07;16.52;;;9.75;;
41693;SDS011;27377;50.666;9.150;2024-03-22T09:15:57;17.05;;;9.75;;
41693;SDS011;27377;50.666;9.150;2024-03-22T09:18:42;16.70;;;9.43;;
41693;SDS011;27377;50.666;9.150;2024-03-22T09:21:26;15.77;;;9.10;;
41693;SDS011;27377;50.666;9.150;2024-03-22T09:24:10;15.30;;;9.50;;
41693;SDS011;27377;50.666;9.150;2024-03-22T09:26:54;16.60;;;9.63;;
41693;SDS011;27377;50.666;9.150;2024-03-22T09:29:39;14.90;;;9.27;;
41693;SDS011;27377;50.666;9.150;2024-03-22T09:32:23;15.70;;;9.13;;
41693;SDS011;27377;50.666;9.150;2024-03-22T09:35:07;16.08;;;9.00;;
41693;SDS011;27377;50.666;9.150;2024-03-22T09:37:51;14.50;;;9.00;;
41693;SDS011;27377;50.666;9.150;2024-03-22T09:40:37;14.27;;;8.65;;
41693;SDS011;27377;50.666;9.150;2024-03-22T09:43:23;14.77;;;9.37;;
41693;SDS011;27377;50.666;9.150;2024-03-22T09:46:07;16.07;;;9.13;;
41693;SDS011;27377;50.666;9.150;2024-03-22T09:48:51;16.10;;;9.73;;
41693;SDS011;27377;50.666;9.150;2024-03-22T09:51:37;15.90;;;9.88;;
41693;SDS011;27377;50.666;9.150;2024-03-22T09:54:23;16.73;;;10.02;;
41693;SDS011;27377;50.666;9.150;2024-03-22T09:57:10;17.75;;;10.80;;
41693;SDS011;27377;50.666;9.150;2024-03-22T09:59:57;17.33;;;10.10;;
41693;SDS011;27377;50.666;9.150;2024-03-22T10:02:42;17.40;;;10.20;;
41693;SDS011;27377;50.666;9.150;2024-03-22T10:05:26;17.37;;;10.20;;
41693;SDS011;27377;50.666;9.150;2024-03-22T10:08:10;16.27;;;10.00;;
41693;SDS011;27377;50.666;9.150;2024-03-22T10:10:55;16.80;;;9.27;;
41693;SDS011;27377;50.666;9.150;2024-03-22T10:13:39;15.23;;;9.70;;
41693;SDS011;27377;50.666;9.150;2024-03-22T10:16:23;16.20;;;9.70;;
41693;SDS011;27377;50.666;9.150;2024-03-22T10:19:07;16.40;;;10.18;;
41693;SDS011;27377;50.666;9.150;2024-03-22T10:22:01;16.27;;;10.02;;
41693;SDS011;27377;50.666;9.150;2024-03-22T10:24:48;16.73;;;10.87;;
41693;SDS011;27377;50.666;9.150;2024-03-22T10:27:32;17.10;;;10.48;;
41693;SDS011;27377;50.666;9.150;2024-03-22T10:30:17;18.55;;;11.02;;
41693;SDS011;27377;50.666;9.150;2024-03-22T10:33:01;16.58;;;10.70;;
41693;SDS011;27377;50.666;9.150;2024-03-22T10:35:47;18.60;;;10.93;;
41693;SDS011;27377;50.666;9.150;2024-03-22T10:38:38;19.15;;;11.13;;
41693;SDS011;27377;50.666;9.150;2024-03-22T10:41:25;18.25;;;11.32;;
41693;SDS011;27377;50.666;9.150;2024-03-22T10:44:09;17.58;;;10.93;;
41693;SDS011;27377;50.666;9.150;2024-03-22T10:46:53;17.95;;;11.43;;
41693;SDS011;27377;50.666;9.150;2024-03-22T10:49:41;18.33;;;11.50;;
41693;SDS011;27377;50.666;9.150;2024-03-22T10:52:25;20.67;;;11.57;;
41693;SDS011;27377;50.666;9.150;2024-03-22T10:55:12;17.43;;;11.60;;
41693;SDS011;27377;50.666;9.150;2024-03-22T10:58:15;17.35;;;11.50;;
41693;SDS011;27377;50.666;9.150;2024-03-22T11:01:00;20.10;;;12.27;;
41693;SDS011;27377;50.666;9.150;2024-03-22T11:03:44;17.67;;;11.43;;
41693;SDS011;27377;50.666;9.150;2024-03-22T11:06:28;19.27;;;11.57;;
41693;SDS011;27377;50.666;9.150;2024-03-22T11:09:18;19.67;;;12.48;;
41693;SDS011;27377;50.666;9.150;2024-03-22T11:12:06;20.85;;;12.38;;
41693;SDS011;27377;50.666;9.150;2024-03-22T11:14:53;21.05;;;12.50;;
41693;SDS011;27377;50.666;9.150;2024-03-22T11:17:37;18.20;;;12.38;;
41693;SDS011;27377;50.666;9.150;2024-03-22T11:20:21;20.20;;;12.65;;
41693;SDS011;27377;50.666;9.150;2024-03-22T11:23:05;18.35;;;12.68;;
41693;SDS011;27377;50.666;9.150;2024-03-22T11:25:50;18.55;;;12.70;;
41693;SDS011;27377;50.666;9.150;2024-03-22T11:28:34;17.10;;;11.93;;
41693;SDS011;27377;50.666;9.150;2024-03-22T11:31:18;19.45;;;13.27;;
41693;SDS011;27377;50.666;9.150;2024-03-22T11:34:05;18.55;;;12.88;;
41693;SDS011;27377;50.666;9.150;2024-03-22T11:36:49;20.33;;;13.52;;
41693;SDS011;27377;50.666;9.150;2024-03-22T11:39:34;21.60;;;13.50;;
41693;SDS011;27377;50.666;9.150;2024-03-22T11:42:18;20.43;;;13.37;;
41693;SDS011;27377;50.666;9.150;2024-03-22T11:45:03;19.92;;;13.05;;
41693;SDS011;27377;50.666;9.150;2024-03-22T11:47:48;20.77;;;13.97;;
41693;SDS011;27377;50.666;9.150;2024-03-22T11:50:32;20.83;;;12.82;;
41693;SDS011;27377;50.666;9.150;2024-03-22T11:53:16;20.40;;;13.48;;
41693;SDS011;27377;50.666;9.150;2024-03-22T11:56:01;20.67;;;13.00;;
41693;SDS011;27377;50.666;9.150;2024-03-22T11:58:47;18.77;;;13.20;;
41693;SDS011;27377;50.666;9.150;2024-03-22T12:01:33;20.80;;;13.50;;
41693;SDS011;27377;50.666;9.150;2024-03-22T12:04:17;19.58;;;12.90;;
41693;SDS011;27377;50.666;9.150;2024-03-22T12:07:01;22.00;;;13.60;;
41693;SDS011;27377;50.666;9.150;2024-03-22T12:09:46;20.80;;;13.55;;
41693;SDS011;27377;50.666;9.150;2024-03-22T12:12:30;18.77;;;13.30;;
41693;SDS011;27377;50.666;9.150;2024-03-22T12:15:14;19.00;;;13.32;;
41693;SDS011;27377;50.666;9.150;2024-03-22T12:18:00;20.70;;;13.63;;
41693;SDS011;27377;50.666;9.150;2024-03-22T12:20:44;20.30;;;13.45;;
41693;SDS011;27377;50.666;9.150;2024-03-22T12:23:28;21.25;;;13.25;;
41693;SDS011;27377;50.666;9.150;2024-03-22T12:26:12;20.30;;;13.63;;
41693;SDS011;27377;50.666;9.150;2024-03-22T12:28:57;21.38;;;13.00;;
41693;SDS011;27377;50.666;9.150;2024-03-22T12:31:42;19.42;;;13.40;;
41693;SDS011;27377;50.666;9.150;2024-03-22T12:34:26;21.60;;;12.85;;
41693;SDS011;27377;50.666;9.150;2024-03-22T12:37:11;21.13;;;13.23;;
41693;SDS011;27377;50.666;9.150;2024-03-22T12:39:54;19.67;;;12.82;;
41693;SDS011;27377;50.666;9.150;2024-03-22T12:42:39;17.73;;;12.13;;
41693;SDS011;27377;50.666;9.150;2024-03-22T12:45:23;19.48;;;12.30;;
41693;SDS011;27377;50.666;9.150;2024-03-22T12:48:07;16.88;;;11.60;;
41693;SDS011;27377;50.666;9.150;2024-03-22T12:50:52;17.95;;;12.38;;
41693;SDS011;27377;50.666;9.150;2024-03-22T12:53:37;18.80;;;12.43;;
41693;SDS011;27377;50.666;9.150;2024-03-22T12:56:21;18.83;;;12.35;;
41693;SDS011;27377;50.666;9.150;2024-03-22T12:59:05;17.63;;;11.35;;
41693;SDS011;27377;50.666;9.150;2024-03-22T13:01:50;18.10;;;11.70;;
41693;SDS011;27377;50.666;9.150;2024-03-22T13:04:34;18.05;;;12.18;;
41693;SDS011;27377;50.666;9.150;2024-03-22T13:07:19;18.60;;;12.35;;
41693;SDS011;27377;50.666;9.150;2024-03-22T13:10:03;18.35;;;11.93;;
41693;SDS011;27377;50.666;9.150;2024-03-22T13:12:49;18.55;;;11.57;;
41693;SDS011;27377;50.666;9.150;2024-03-22T13:15:33;17.42;;;11.82;;
41693;SDS011;27377;50.666;9.150;2024-03-22T13:18:18;17.33;;;11.90;;
41693;SDS011;27377;50.666;9.150;2024-03-22T13:21:02;19.13;;;12.57;;
41693;SDS011;27377;50.666;9.150;2024-03-22T13:23:49;17.15;;;11.15;;
41693;SDS011;27377;50.666;9.150;2024-03-22T13:26:32;16.80;;;10.95;;
41693;SDS011;27377;50.666;9.150;2024-03-22T13:29:16;17.93;;;11.20;;
41693;SDS011;27377;50.666;9.150;2024-03-22T13:32:00;16.48;;;11.48;;
41693;SDS011;27377;50.666;9.150;2024-03-22T13:34:44;19.70;;;11.93;;
41693;SDS011;27377;50.666;9.150;2024-03-22T13:37:28;16.65;;;11.43;;
41693;SDS011;27377;50.666;9.150;2024-03-22T13:40:12;16.67;;;11.30;;
41693;SDS011;27377;50.666;9.150;2024-03-22T13:42:56;19.20;;;11.35;;
41693;SDS011;27377;50.666;9.150;2024-03-22T13:45:42;16.45;;;11.35;;
41693;SDS011;27377;50.666;9.150;2024-03-22T13:48:27;18.33;;;11.50;;
41693;SDS011;27377;50.666;9.150;2024-03-22T13:51:11;17.88;;;11.43;;
41693;SDS011;27377;50.666;9.150;2024-03-22T13:53:55;17.08;;;11.85;;
41693;SDS011;27377;50.666;9.150;2024-03-22T13:56:39;15.82;;;11.05;;
41693;SDS011;27377;50.666;9.150;2024-03-22T13:59:23;19.13;;;11.07;;
41693;SDS011;27377;50.666;9.150;2024-03-22T14:02:07;18.60;;;11.13;;
41693;SDS011;27377;50.666;9.150;2024-03-22T14:04:51;16.92;;;11.20;;
41693;SDS011;27377;50.666;9.150;2024-03-22T14:07:36;17.33;;;11.23;;
41693;SDS011;27377;50.666;9.150;2024-03-22T14:10:27;16.38;;;10.90;;
41693;SDS011;27377;50.666;9.150;2024-03-22T14:13:13;18.83;;;11.23;;
41693;SDS011;27377;50.666;9.150;2024-03-22T14:15:59;18.73;;;11.67;;
41693;SDS011;27377;50.666;9.150;2024-03-22T14:18:43;16.13;;;10.57;;
41693;SDS011;27377;50.666;9.150;2024-03-22T14:21:27;18.80;;;11.17;;
41693;SDS011;27377;50.666;9.150;2024-03-22T14:24:11;15.73;;;10.50;;
41693;SDS011;27377;50.666;9.150;2024-03-22T14:26:56;16.63;;;10.65;;
41693;SDS011;27377;50.666;9.150;2024-03-22T14:29:43;17.73;;;10.95;;
41693;SDS011;27377;50.666;9.150;2024-03-22T14:32:35;17.50;;;10.65;;
41693;SDS011;27377;50.666;9.150;2024-03-22T14:35:24;19.33;;;11.60;;
41693;SDS011;27377;50.666;9.150;2024-03-22T14:38:08;18.85;;;12.18;;
41693;SDS011;27377;50.666;9.150;2024-03-22T14:40:52;18.92;;;12.10;;
41693;SDS011;27377;50.666;9.150;2024-03-22T14:43:37;20.10;;;13.13;;
41693;SDS011;27377;50.666;9.150;2024-03-22T14:46:21;20.23;;;12.87;;
41693;SDS011;27377;50.666;9.150;2024-03-22T14:49:08;21.92;;;13.13;;
41693;SDS011;27377;50.666;9.150;2024-03-22T14:51:52;21.67;;;13.00;;
41693;SDS011;27377;50.666;9.150;2024-03-22T14:54:37;19.13;;;12.68;;
41693;SDS011;27377;50.666;9.150;2024-03-22T14:57:21;19.20;;;12.23;;
41693;SDS011;27377;50.666;9.150;2024-03-22T15:00:06;20.13;;;12.55;;
41693;SDS011;27377;50.666;9.150;2024-03-22T15:02:54;19.25;;;12.48;;
41693;SDS011;27377;50.666;9.150;2024-03-22T15:05:38;19.67;;;12.75;;
41693;SDS011;27377;50.666;9.150;2024-03-22T15:08:23;18.73;;;11.68;;
41693;SDS011;27377;50.666;9.150;2024-03-22T15:11:07;19.27;;;12.13;;
41693;SDS011;27377;50.666;9.150;2024-03-22T15:13:51;17.85;;;11.18;;
41693;SDS011;27377;50.666;9.150;2024-03-22T15:16:36;17.37;;;11.27;;
41693;SDS011;27377;50.666;9.150;2024-03-22T15:19:21;18.47;;;11.13;;
41693;SDS011;27377;50.666;9.150;2024-03-22T15:22:06;16.93;;;10.77;;
41693;SDS011;27377;50.666;9.150;2024-03-22T15:24:52;15.77;;;10.18;;
41693;SDS011;27377;50.666;9.150;2024-03-22T15:27:36;15.47;;;9.57;;
41693;SDS011;27377;50.666;9.150;2024-03-22T15:30:20;16.00;;;10.05;;
41693;SDS011;27377;50.666;9.150;2024-03-22T15:33:05;14.95;;;10.25;;
41693;SDS011;27377;50.666;9.150;2024-03-22T15:35:50;15.70;;;10.15;;
41693;SDS011;27377;50.666;9.150;2024-03-22T15:38:34;16.52;;;10.23;;
41693;SDS011;27377;50.666;9.150;2024-03-22T15:41:18;14.98;;;10.00;;
41693;SDS011;27377;50.666;9.150;2024-03-22T15:44:03;16.20;;;9.88;;
41693;SDS011;27377;50.666;9.150;2024-03-22T15:46:47;16.47;;;9.50;;
41693;SDS011;27377;50.666;9.150;2024-03-22T15:49:34;14.80;;;9.53;;
41693;SDS011;27377;50.666;9.150;2024-03-22T15:52:19;13.00;;;8.90;;
41693;SDS011;27377;50.666;9.150;2024-03-22T15:55:03;14.05;;;9.15;;
41693;SDS011;27377;50.666;9.150;2024-03-22T15:57:50;13.23;;;8.38;;
41693;SDS011;27377;50.666;9.150;2024-03-22T16:00:39;14.27;;;8.40;;
41693;SDS011;27377;50.666;9.150;2024-03-22T16:03:23;11.63;;;7.32;;
41693;SDS011;27377;50.666;9.150;2024-03-22T16:06:08;11.30;;;7.70;;
41693;SDS011;27377;50.666;9.150;2024-03-22T16:08:52;10.98;;;7.45;;